sensor_id;sensor_type;location;lat;lon;timestamp;P1;durP1;ratioP1;P2;durP2;ratioP2
23670;SDS011;12012;51.998;7.614;2022-12-05T00:03:56;69.55;;;31.30;;
23670;SDS011;12012;51.998;7.614;2022-12-05T00:06:24;75.50;;;33.88;;
23670;SDS011;12012;51.998;7.614;2022-12-05T00:08:51;72.82;;;33.65;;
23670;SDS011;12012;51.998;7.614;2022-12-05T00:11:18;68.60;;;31.83;;
23670;SDS011;12012;51.998;7.614;2022-12-05T00:13:47;75.97;;;34.05;;
23670;SDS011;12012;51.998;7.614;2022-12-05T00:16:14;75.93;;;33.20;;
23670;SDS011;12012;51.998;7.614;2022-12-05T00:18:41;68.70;;;32.25;;
23670;SDS011;12012;51.998;7.614;2022-12-05T00:21:11;78.22;;;34.88;;
23670;SDS011;12012;51.998;7.614;2022-12-05T00:23:38;70.85;;;31.77;;
23670;SDS011;12012;51.998;7.614;2022-12-05T00:26:04;74.32;;;32.17;;
23670;SDS011;12012;51.998;7.614;2022-12-05T00:28:30;75.57;;;33.17;;
23670;SDS011;12012;51.998;7.614;2022-12-05T00:30:57;69.15;;;31.90;;
23670;SDS011;12012;51.998;7.614;2022-12-05T00:33:27;74.78;;;33.92;;
23670;SDS011;12012;51.998;7.614;2022-12-05T00:35:53;72.43;;;32.22;;
23670;SDS011;12012;51.998;7.614;2022-12-05T00:38:18;74.97;;;32.58;;
23670;SDS011;12012;51.998;7.614;2022-12-05T00:40:44;73.78;;;31.27;;
23670;SDS011;12012;51.998;7.614;2022-12-05T00:43:09;64.32;;;30.90;;
23670;SDS011;12012;51.998;7.614;2022-12-05T00:45:35;65.15;;;31.15;;
23670;SDS011;12012;51.998;7.614;2022-12-05T00:48:01;70.18;;;31.63;;
23670;SDS011;12012;51.998;7.614;2022-12-05T00:50:26;74.18;;;32.20;;
23670;SDS011;12012;51.998;7.614;2022-12-05T00:52:52;67.50;;;30.95;;
23670;SDS011;12012;51.998;7.614;2022-12-05T00:55:18;71.47;;;32.42;;
23670;SDS011;12012;51.998;7.614;2022-12-05T00:57:43;64.50;;;31.38;;
23670;SDS011;12012;51.998;7.614;2022-12-05T01:00:09;72.88;;;32.05;;
23670;SDS011;12012;51.998;7.614;2022-12-05T01:02:35;71.20;;;31.88;;
23670;SDS011;12012;51.998;7.614;2022-12-05T01:05:00;65.15;;;30.95;;
23670;SDS011;12012;51.998;7.614;2022-12-05T01:07:26;73.38;;;32.22;;
23670;SDS011;12012;51.998;7.614;2022-12-05T01:09:51;72.35;;;31.13;;
23670;SDS011;12012;51.998;7.614;2022-12-05T01:12:17;69.30;;;31.45;;
23670;SDS011;12012;51.998;7.614;2022-12-05T01:14:42;64.68;;;29.42;;
23670;SDS011;12012;51.998;7.614;2022-12-05T01:17:08;65.60;;;30.10;;
23670;SDS011;12012;51.998;7.614;2022-12-05T01:19:34;65.03;;;30.77;;
23670;SDS011;12012;51.998;7.614;2022-12-05T01:22:00;66.95;;;31.48;;
23670;SDS011;12012;51.998;7.614;2022-12-05T01:24:26;66.25;;;31.15;;
23670;SDS011;12012;51.998;7.614;2022-12-05T01:26:52;74.68;;;31.33;;
23670;SDS011;12012;51.998;7.614;2022-12-05T01:29:18;61.03;;;30.00;;
23670;SDS011;12012;51.998;7.614;2022-12-05T01:31:45;69.35;;;30.80;;
23670;SDS011;12012;51.998;7.614;2022-12-05T01:34:11;60.75;;;28.88;;
23670;SDS011;12012;51.998;7.614;2022-12-05T01:36:39;69.57;;;32.17;;
23670;SDS011;12012;51.998;7.614;2022-12-05T01:39:05;64.93;;;29.90;;
23670;SDS011;12012;51.998;7.614;2022-12-05T01:41:33;60.75;;;29.65;;
23670;SDS011;12012;51.998;7.614;2022-12-05T01:44:02;66.38;;;30.85;;
23670;SDS011;12012;51.998;7.614;2022-12-05T01:46:32;66.47;;;31.30;;
23670;SDS011;12012;51.998;7.614;2022-12-05T01:49:04;63.65;;;29.88;;
23670;SDS011;12012;51.998;7.614;2022-12-05T01:51:39;60.45;;;28.77;;
23670;SDS011;12012;51.998;7.614;2022-12-05T01:54:07;67.72;;;31.77;;
23670;SDS011;12012;51.998;7.614;2022-12-05T01:56:34;66.35;;;31.33;;
23670;SDS011;12012;51.998;7.614;2022-12-05T01:59:03;58.75;;;29.90;;
23670;SDS011;12012;51.998;7.614;2022-12-05T02:01:31;60.33;;;29.57;;
23670;SDS011;12012;51.998;7.614;2022-12-05T02:03:57;58.58;;;27.98;;
23670;SDS011;12012;51.998;7.614;2022-12-05T02:06:24;60.67;;;30.13;;
23670;SDS011;12012;51.998;7.614;2022-12-05T02:08:51;67.00;;;31.85;;
23670;SDS011;12012;51.998;7.614;2022-12-05T02:11:17;57.35;;;29.10;;
23670;SDS011;12012;51.998;7.614;2022-12-05T02:27:46;62.35;;;29.38;;
23670;SDS011;12012;51.998;7.614;2022-12-05T02:30:24;59.13;;;28.30;;
23670;SDS011;12012;51.998;7.614;2022-12-05T02:38:43;55.85;;;28.52;;
23670;SDS011;12012;51.998;7.614;2022-12-05T02:43:55;64.50;;;31.05;;
23670;SDS011;12012;51.998;7.614;2022-12-05T02:46:31;58.85;;;29.33;;
23670;SDS011;12012;51.998;7.614;2022-12-05T02:49:02;62.97;;;29.80;;
23670;SDS011;12012;51.998;7.614;2022-12-05T02:51:32;61.75;;;29.67;;
23670;SDS011;12012;51.998;7.614;2022-12-05T02:54:02;52.22;;;26.33;;
23670;SDS011;12012;51.998;7.614;2022-12-05T02:56:33;52.42;;;26.52;;
23670;SDS011;12012;51.998;7.614;2022-12-05T02:59:01;55.72;;;28.67;;
23670;SDS011;12012;51.998;7.614;2022-12-05T03:01:27;58.10;;;28.67;;
23670;SDS011;12012;51.998;7.614;2022-12-05T03:03:56;59.05;;;27.33;;
23670;SDS011;12012;51.998;7.614;2022-12-05T03:06:27;66.60;;;31.63;;
23670;SDS011;12012;51.998;7.614;2022-12-05T03:09:27;52.95;;;26.55;;
23670;SDS011;12012;51.998;7.614;2022-12-05T03:12:01;54.80;;;27.73;;
23670;SDS011;12012;51.998;7.614;2022-12-05T03:14:49;60.30;;;29.77;;
23670;SDS011;12012;51.998;7.614;2022-12-05T03:17:23;62.22;;;29.33;;
23670;SDS011;12012;51.998;7.614;2022-12-05T03:22:29;55.45;;;26.77;;
23670;SDS011;12012;51.998;7.614;2022-12-05T03:24:59;55.58;;;25.70;;
23670;SDS011;12012;51.998;7.614;2022-12-05T03:30:08;52.97;;;27.35;;
23670;SDS011;12012;51.998;7.614;2022-12-05T03:35:25;48.85;;;25.35;;
23670;SDS011;12012;51.998;7.614;2022-12-05T03:38:18;49.13;;;25.00;;
23670;SDS011;12012;51.998;7.614;2022-12-05T03:43:49;45.78;;;24.35;;
23670;SDS011;12012;51.998;7.614;2022-12-05T03:51:33;52.17;;;26.33;;
23670;SDS011;12012;51.998;7.614;2022-12-05T03:56:32;55.53;;;28.20;;
23670;SDS011;12012;51.998;7.614;2022-12-05T03:59:02;57.65;;;29.42;;
23670;SDS011;12012;51.998;7.614;2022-12-05T04:01:50;50.67;;;25.50;;
23670;SDS011;12012;51.998;7.614;2022-12-05T04:04:32;50.25;;;26.58;;
23670;SDS011;12012;51.998;7.614;2022-12-05T04:07:00;60.17;;;30.83;;
23670;SDS011;12012;51.998;7.614;2022-12-05T04:09:30;62.38;;;30.30;;
23670;SDS011;12012;51.998;7.614;2022-12-05T04:12:02;63.50;;;28.83;;
23670;SDS011;12012;51.998;7.614;2022-12-05T04:14:41;53.47;;;27.33;;
23670;SDS011;12012;51.998;7.614;2022-12-05T04:17:16;50.05;;;26.42;;
23670;SDS011;12012;51.998;7.614;2022-12-05T04:23:02;52.38;;;26.55;;
23670;SDS011;12012;51.998;7.614;2022-12-05T04:25:31;47.83;;;24.85;;
23670;SDS011;12012;51.998;7.614;2022-12-05T04:33:39;46.72;;;23.45;;
23670;SDS011;12012;51.998;7.614;2022-12-05T04:36:16;51.25;;;25.52;;
23670;SDS011;12012;51.998;7.614;2022-12-05T04:38:50;54.58;;;27.48;;
23670;SDS011;12012;51.998;7.614;2022-12-05T04:41:24;53.50;;;27.25;;
23670;SDS011;12012;51.998;7.614;2022-12-05T04:43:53;65.75;;;29.92;;
23670;SDS011;12012;51.998;7.614;2022-12-05T04:46:22;59.72;;;29.85;;
23670;SDS011;12012;51.998;7.614;2022-12-05T04:48:50;62.65;;;31.13;;
23670;SDS011;12012;51.998;7.614;2022-12-05T04:51:20;54.28;;;26.33;;
23670;SDS011;12012;51.998;7.614;2022-12-05T04:53:48;61.45;;;30.00;;
23670;SDS011;12012;51.998;7.614;2022-12-05T04:56:18;53.40;;;25.33;;
23670;SDS011;12012;51.998;7.614;2022-12-05T04:58:45;53.67;;;27.67;;
23670;SDS011;12012;51.998;7.614;2022-12-05T05:03:47;68.28;;;31.23;;
23670;SDS011;12012;51.998;7.614;2022-12-05T05:06:26;56.13;;;27.35;;
23670;SDS011;12012;51.998;7.614;2022-12-05T05:08:53;55.50;;;26.70;;
23670;SDS011;12012;51.998;7.614;2022-12-05T05:11:24;63.60;;;30.52;;
23670;SDS011;12012;51.998;7.614;2022-12-05T05:13:56;58.72;;;30.17;;
23670;SDS011;12012;51.998;7.614;2022-12-05T05:16:25;53.67;;;28.65;;
23670;SDS011;12012;51.998;7.614;2022-12-05T05:19:02;51.05;;;25.45;;
23670;SDS011;12012;51.998;7.614;2022-12-05T05:21:30;55.80;;;26.65;;
23670;SDS011;12012;51.998;7.614;2022-12-05T05:23:57;51.90;;;25.88;;
23670;SDS011;12012;51.998;7.614;2022-12-05T05:26:24;56.60;;;27.30;;
23670;SDS011;12012;51.998;7.614;2022-12-05T05:28:51;57.13;;;28.55;;
23670;SDS011;12012;51.998;7.614;2022-12-05T05:31:17;47.83;;;24.00;;
23670;SDS011;12012;51.998;7.614;2022-12-05T05:33:47;62.80;;;30.35;;
23670;SDS011;12012;51.998;7.614;2022-12-05T05:36:14;54.00;;;26.42;;
23670;SDS011;12012;51.998;7.614;2022-12-05T05:38:40;51.80;;;25.38;;
23670;SDS011;12012;51.998;7.614;2022-12-05T05:41:15;55.10;;;27.10;;
23670;SDS011;12012;51.998;7.614;2022-12-05T05:43:45;53.28;;;27.58;;
23670;SDS011;12012;51.998;7.614;2022-12-05T05:46:12;51.00;;;25.45;;
23670;SDS011;12012;51.998;7.614;2022-12-05T05:48:41;44.13;;;23.42;;
23670;SDS011;12012;51.998;7.614;2022-12-05T05:51:09;43.15;;;22.52;;
23670;SDS011;12012;51.998;7.614;2022-12-05T05:53:35;49.67;;;25.25;;
23670;SDS011;12012;51.998;7.614;2022-12-05T05:56:05;44.03;;;22.95;;
23670;SDS011;12012;51.998;7.614;2022-12-05T05:58:35;42.60;;;22.00;;
23670;SDS011;12012;51.998;7.614;2022-12-05T06:01:02;44.33;;;23.52;;
23670;SDS011;12012;51.998;7.614;2022-12-05T06:03:28;43.85;;;23.67;;
23670;SDS011;12012;51.998;7.614;2022-12-05T06:05:57;44.33;;;23.65;;
23670;SDS011;12012;51.998;7.614;2022-12-05T06:08:23;50.25;;;26.40;;
23670;SDS011;12012;51.998;7.614;2022-12-05T06:10:49;46.35;;;24.67;;
23670;SDS011;12012;51.998;7.614;2022-12-05T06:13:14;48.70;;;25.08;;
23670;SDS011;12012;51.998;7.614;2022-12-05T06:15:40;44.92;;;24.17;;
23670;SDS011;12012;51.998;7.614;2022-12-05T06:18:05;51.95;;;26.38;;
23670;SDS011;12012;51.998;7.614;2022-12-05T06:20:31;50.50;;;25.30;;
23670;SDS011;12012;51.998;7.614;2022-12-05T06:22:56;50.08;;;26.80;;
23670;SDS011;12012;51.998;7.614;2022-12-05T06:25:22;50.97;;;25.13;;
23670;SDS011;12012;51.998;7.614;2022-12-05T06:27:48;46.20;;;25.33;;
23670;SDS011;12012;51.998;7.614;2022-12-05T06:30:13;42.03;;;22.92;;
23670;SDS011;12012;51.998;7.614;2022-12-05T06:32:40;41.67;;;21.58;;
23670;SDS011;12012;51.998;7.614;2022-12-05T06:35:06;38.67;;;21.40;;
23670;SDS011;12012;51.998;7.614;2022-12-05T06:37:39;48.70;;;24.80;;
23670;SDS011;12012;51.998;7.614;2022-12-05T06:40:08;41.47;;;22.40;;
23670;SDS011;12012;51.998;7.614;2022-12-05T06:42:35;37.20;;;20.30;;
23670;SDS011;12012;51.998;7.614;2022-12-05T06:45:01;41.42;;;21.83;;
23670;SDS011;12012;51.998;7.614;2022-12-05T06:47:27;43.40;;;23.45;;
23670;SDS011;12012;51.998;7.614;2022-12-05T06:49:52;39.13;;;20.98;;
23670;SDS011;12012;51.998;7.614;2022-12-05T06:52:18;40.30;;;20.98;;
23670;SDS011;12012;51.998;7.614;2022-12-05T06:54:43;33.22;;;19.08;;
23670;SDS011;12012;51.998;7.614;2022-12-05T06:57:10;34.78;;;19.23;;
23670;SDS011;12012;51.998;7.614;2022-12-05T06:59:36;39.92;;;21.98;;
23670;SDS011;12012;51.998;7.614;2022-12-05T07:02:02;35.83;;;20.60;;
23670;SDS011;12012;51.998;7.614;2022-12-05T07:04:31;38.97;;;20.40;;
23670;SDS011;12012;51.998;7.614;2022-12-05T07:06:56;39.97;;;20.85;;
23670;SDS011;12012;51.998;7.614;2022-12-05T07:09:23;40.13;;;20.65;;
23670;SDS011;12012;51.998;7.614;2022-12-05T07:12:08;37.28;;;19.35;;
23670;SDS011;12012;51.998;7.614;2022-12-05T07:14:34;42.70;;;22.45;;
23670;SDS011;12012;51.998;7.614;2022-12-05T07:16:59;36.58;;;21.23;;
23670;SDS011;12012;51.998;7.614;2022-12-05T07:19:25;31.92;;;18.63;;
23670;SDS011;12012;51.998;7.614;2022-12-05T07:21:50;37.70;;;20.52;;
23670;SDS011;12012;51.998;7.614;2022-12-05T07:24:16;37.30;;;20.65;;
23670;SDS011;12012;51.998;7.614;2022-12-05T07:26:41;46.92;;;24.52;;
23670;SDS011;12012;51.998;7.614;2022-12-05T07:29:07;42.03;;;22.17;;
23670;SDS011;12012;51.998;7.614;2022-12-05T07:31:34;43.33;;;21.48;;
23670;SDS011;12012;51.998;7.614;2022-12-05T07:34:00;35.25;;;20.55;;
23670;SDS011;12012;51.998;7.614;2022-12-05T07:36:26;45.60;;;23.92;;
23670;SDS011;12012;51.998;7.614;2022-12-05T07:38:55;36.88;;;20.70;;
23670;SDS011;12012;51.998;7.614;2022-12-05T07:41:23;46.00;;;22.48;;
23670;SDS011;12012;51.998;7.614;2022-12-05T07:43:51;40.10;;;21.60;;
23670;SDS011;12012;51.998;7.614;2022-12-05T07:46:17;40.70;;;20.75;;
23670;SDS011;12012;51.998;7.614;2022-12-05T07:48:44;47.25;;;25.83;;
23670;SDS011;12012;51.998;7.614;2022-12-05T07:51:11;44.42;;;24.75;;
23670;SDS011;12012;51.998;7.614;2022-12-05T07:53:37;36.67;;;21.75;;
23670;SDS011;12012;51.998;7.614;2022-12-05T07:56:05;34.70;;;19.80;;
23670;SDS011;12012;51.998;7.614;2022-12-05T07:58:32;35.40;;;19.42;;
23670;SDS011;12012;51.998;7.614;2022-12-05T08:01:09;36.85;;;19.83;;
23670;SDS011;12012;51.998;7.614;2022-12-05T08:03:37;39.55;;;20.77;;
23670;SDS011;12012;51.998;7.614;2022-12-05T08:06:03;44.83;;;23.92;;
23670;SDS011;12012;51.998;7.614;2022-12-05T08:08:31;37.67;;;21.17;;
23670;SDS011;12012;51.998;7.614;2022-12-05T08:11:01;41.28;;;21.65;;
23670;SDS011;12012;51.998;7.614;2022-12-05T08:13:36;42.53;;;24.08;;
23670;SDS011;12012;51.998;7.614;2022-12-05T08:16:02;38.78;;;21.23;;
23670;SDS011;12012;51.998;7.614;2022-12-05T08:18:29;44.17;;;22.42;;
23670;SDS011;12012;51.998;7.614;2022-12-05T08:21:00;41.22;;;22.15;;
23670;SDS011;12012;51.998;7.614;2022-12-05T08:23:27;40.00;;;21.98;;
23670;SDS011;12012;51.998;7.614;2022-12-05T08:25:54;40.67;;;23.05;;
23670;SDS011;12012;51.998;7.614;2022-12-05T08:28:20;35.75;;;21.05;;
23670;SDS011;12012;51.998;7.614;2022-12-05T08:30:45;37.58;;;20.52;;
23670;SDS011;12012;51.998;7.614;2022-12-05T08:33:11;37.90;;;20.80;;
23670;SDS011;12012;51.998;7.614;2022-12-05T08:35:36;35.35;;;19.40;;
23670;SDS011;12012;51.998;7.614;2022-12-05T08:38:02;37.85;;;22.50;;
23670;SDS011;12012;51.998;7.614;2022-12-05T08:40:28;39.28;;;20.58;;
23670;SDS011;12012;51.998;7.614;2022-12-05T08:42:55;33.47;;;18.23;;
23670;SDS011;12012;51.998;7.614;2022-12-05T08:45:21;33.90;;;19.23;;
23670;SDS011;12012;51.998;7.614;2022-12-05T08:47:47;34.83;;;18.90;;
23670;SDS011;12012;51.998;7.614;2022-12-05T08:50:12;31.05;;;18.73;;
23670;SDS011;12012;51.998;7.614;2022-12-05T08:52:38;36.53;;;19.58;;
23670;SDS011;12012;51.998;7.614;2022-12-05T08:55:03;29.02;;;17.35;;
23670;SDS011;12012;51.998;7.614;2022-12-05T08:57:29;39.65;;;21.25;;
23670;SDS011;12012;51.998;7.614;2022-12-05T08:59:55;32.13;;;17.95;;
23670;SDS011;12012;51.998;7.614;2022-12-05T09:02:20;36.17;;;20.08;;
23670;SDS011;12012;51.998;7.614;2022-12-05T09:04:48;34.20;;;18.88;;
23670;SDS011;12012;51.998;7.614;2022-12-05T09:07:15;32.95;;;19.02;;
23670;SDS011;12012;51.998;7.614;2022-12-05T09:09:40;34.42;;;19.00;;
23670;SDS011;12012;51.998;7.614;2022-12-05T09:12:06;32.25;;;18.40;;
23670;SDS011;12012;51.998;7.614;2022-12-05T09:14:31;28.25;;;16.92;;
23670;SDS011;12012;51.998;7.614;2022-12-05T09:16:57;31.52;;;17.45;;
23670;SDS011;12012;51.998;7.614;2022-12-05T09:19:23;31.80;;;18.88;;
23670;SDS011;12012;51.998;7.614;2022-12-05T09:21:51;31.30;;;18.00;;
23670;SDS011;12012;51.998;7.614;2022-12-05T09:24:17;34.38;;;19.38;;
23670;SDS011;12012;51.998;7.614;2022-12-05T09:26:43;32.90;;;18.95;;
23670;SDS011;12012;51.998;7.614;2022-12-05T09:29:10;30.30;;;19.02;;
23670;SDS011;12012;51.998;7.614;2022-12-05T09:31:38;30.95;;;18.33;;
23670;SDS011;12012;51.998;7.614;2022-12-05T09:34:06;27.88;;;16.17;;
23670;SDS011;12012;51.998;7.614;2022-12-05T09:36:33;25.25;;;15.35;;
23670;SDS011;12012;51.998;7.614;2022-12-05T09:39:01;28.20;;;17.15;;
23670;SDS011;12012;51.998;7.614;2022-12-05T09:41:52;26.73;;;16.83;;
23670;SDS011;12012;51.998;7.614;2022-12-05T09:47:16;25.45;;;15.25;;
23670;SDS011;12012;51.998;7.614;2022-12-05T09:49:54;29.98;;;17.67;;
23670;SDS011;12012;51.998;7.614;2022-12-05T09:54:51;37.50;;;21.20;;
23670;SDS011;12012;51.998;7.614;2022-12-05T09:57:19;35.60;;;18.40;;
23670;SDS011;12012;51.998;7.614;2022-12-05T09:59:54;32.35;;;18.58;;
23670;SDS011;12012;51.998;7.614;2022-12-05T10:05:14;28.13;;;16.58;;
23670;SDS011;12012;51.998;7.614;2022-12-05T10:07:55;23.70;;;14.32;;
23670;SDS011;12012;51.998;7.614;2022-12-05T10:13:42;25.65;;;15.38;;
23670;SDS011;12012;51.998;7.614;2022-12-05T10:16:11;25.40;;;15.98;;
23670;SDS011;12012;51.998;7.614;2022-12-05T10:18:43;26.92;;;16.85;;
23670;SDS011;12012;51.998;7.614;2022-12-05T10:21:20;23.48;;;14.93;;
23670;SDS011;12012;51.998;7.614;2022-12-05T10:24:02;20.35;;;13.02;;
23670;SDS011;12012;51.998;7.614;2022-12-05T10:26:34;21.48;;;15.02;;
23670;SDS011;12012;51.998;7.614;2022-12-05T10:31:42;28.17;;;17.55;;
23670;SDS011;12012;51.998;7.614;2022-12-05T10:34:15;28.23;;;17.25;;
23670;SDS011;12012;51.998;7.614;2022-12-05T10:37:24;24.88;;;15.75;;
23670;SDS011;12012;51.998;7.614;2022-12-05T10:39:45;24.25;;;15.90;;
23670;SDS011;12012;51.998;7.614;2022-12-05T10:42:33;23.45;;;14.07;;
23670;SDS011;12012;51.998;7.614;2022-12-05T10:45:03;23.60;;;15.38;;
23670;SDS011;12012;51.998;7.614;2022-12-05T10:47:31;24.42;;;15.50;;
23670;SDS011;12012;51.998;7.614;2022-12-05T10:49:59;24.33;;;15.02;;
23670;SDS011;12012;51.998;7.614;2022-12-05T10:52:31;26.90;;;16.58;;
23670;SDS011;12012;51.998;7.614;2022-12-05T10:55:02;24.10;;;14.18;;
23670;SDS011;12012;51.998;7.614;2022-12-05T10:57:30;21.67;;;13.80;;
23670;SDS011;12012;51.998;7.614;2022-12-05T10:59:56;20.45;;;13.68;;
23670;SDS011;12012;51.998;7.614;2022-12-05T11:02:23;21.08;;;12.73;;
23670;SDS011;12012;51.998;7.614;2022-12-05T11:04:54;20.15;;;13.40;;
23670;SDS011;12012;51.998;7.614;2022-12-05T11:08:03;27.13;;;15.88;;
23670;SDS011;12012;51.998;7.614;2022-12-05T11:10:19;23.65;;;13.73;;
23670;SDS011;12012;51.998;7.614;2022-12-05T11:12:51;26.67;;;15.60;;
23670;SDS011;12012;51.998;7.614;2022-12-05T11:15:23;22.75;;;14.88;;
23670;SDS011;12012;51.998;7.614;2022-12-05T11:18:00;21.77;;;14.35;;
23670;SDS011;12012;51.998;7.614;2022-12-05T11:20:47;25.23;;;15.32;;
23670;SDS011;12012;51.998;7.614;2022-12-05T11:23:28;24.75;;;15.48;;
23670;SDS011;12012;51.998;7.614;2022-12-05T11:28:34;22.80;;;14.15;;
23670;SDS011;12012;51.998;7.614;2022-12-05T11:31:02;24.83;;;15.18;;
23670;SDS011;12012;51.998;7.614;2022-12-05T11:33:34;22.73;;;14.75;;
23670;SDS011;12012;51.998;7.614;2022-12-05T11:36:02;27.02;;;16.02;;
23670;SDS011;12012;51.998;7.614;2022-12-05T11:38:48;25.52;;;15.45;;
23670;SDS011;12012;51.998;7.614;2022-12-05T11:49:43;25.67;;;16.15;;
23670;SDS011;12012;51.998;7.614;2022-12-05T11:57:58;29.20;;;16.98;;
23670;SDS011;12012;51.998;7.614;2022-12-05T12:00:48;27.17;;;17.17;;
23670;SDS011;12012;51.998;7.614;2022-12-05T12:03:23;27.67;;;16.27;;
23670;SDS011;12012;51.998;7.614;2022-12-05T12:11:21;21.42;;;13.80;;
23670;SDS011;12012;51.998;7.614;2022-12-05T12:19:31;26.90;;;16.60;;
23670;SDS011;12012;51.998;7.614;2022-12-05T12:30:05;22.40;;;14.77;;
23670;SDS011;12012;51.998;7.614;2022-12-05T12:38:19;29.52;;;18.35;;
23670;SDS011;12012;51.998;7.614;2022-12-05T12:40:54;41.53;;;21.60;;
23670;SDS011;12012;51.998;7.614;2022-12-05T12:46:15;101.70;;;36.88;;
23670;SDS011;12012;51.998;7.614;2022-12-05T12:51:51;55.97;;;26.10;;
23670;SDS011;12012;51.998;7.614;2022-12-05T12:55:02;52.83;;;24.30;;
23670;SDS011;12012;51.998;7.614;2022-12-05T12:57:28;55.08;;;25.08;;
23670;SDS011;12012;51.998;7.614;2022-12-05T13:05:58;46.42;;;22.50;;
23670;SDS011;12012;51.998;7.614;2022-12-05T13:11:12;44.10;;;21.17;;
23670;SDS011;12012;51.998;7.614;2022-12-05T13:13:41;39.00;;;20.58;;
23670;SDS011;12012;51.998;7.614;2022-12-05T13:16:12;41.65;;;21.60;;
23670;SDS011;12012;51.998;7.614;2022-12-05T13:18:48;51.22;;;22.90;;
23670;SDS011;12012;51.998;7.614;2022-12-05T13:21:13;52.28;;;25.02;;
23670;SDS011;12012;51.998;7.614;2022-12-05T13:23:42;38.65;;;20.60;;
23670;SDS011;12012;51.998;7.614;2022-12-05T13:26:11;41.50;;;23.30;;
23670;SDS011;12012;51.998;7.614;2022-12-05T13:28:38;38.13;;;20.50;;
23670;SDS011;12012;51.998;7.614;2022-12-05T13:31:13;37.45;;;21.15;;
23670;SDS011;12012;51.998;7.614;2022-12-05T13:36:09;39.90;;;22.23;;
23670;SDS011;12012;51.998;7.614;2022-12-05T13:39:05;41.40;;;22.35;;
23670;SDS011;12012;51.998;7.614;2022-12-05T13:42:18;40.42;;;22.17;;
23670;SDS011;12012;51.998;7.614;2022-12-05T13:44:55;36.55;;;20.67;;
23670;SDS011;12012;51.998;7.614;2022-12-05T13:47:39;33.03;;;20.05;;
23670;SDS011;12012;51.998;7.614;2022-12-05T13:50:16;35.58;;;20.52;;
23670;SDS011;12012;51.998;7.614;2022-12-05T13:52:57;31.08;;;18.55;;
23670;SDS011;12012;51.998;7.614;2022-12-05T13:55:29;34.45;;;20.58;;
23670;SDS011;12012;51.998;7.614;2022-12-05T13:57:56;31.90;;;20.75;;
23670;SDS011;12012;51.998;7.614;2022-12-05T14:00:29;34.00;;;20.75;;
23670;SDS011;12012;51.998;7.614;2022-12-05T14:03:04;33.50;;;20.23;;
23670;SDS011;12012;51.998;7.614;2022-12-05T14:05:35;30.45;;;20.50;;
23670;SDS011;12012;51.998;7.614;2022-12-05T14:15:48;26.23;;;18.15;;
23670;SDS011;12012;51.998;7.614;2022-12-05T14:21:10;33.08;;;21.20;;
23670;SDS011;12012;51.998;7.614;2022-12-05T14:31:15;26.83;;;19.10;;
23670;SDS011;12012;51.998;7.614;2022-12-05T14:33:44;27.02;;;19.40;;
23670;SDS011;12012;51.998;7.614;2022-12-05T14:36:13;33.63;;;20.23;;
23670;SDS011;12012;51.998;7.614;2022-12-05T14:38:42;29.08;;;20.83;;
23670;SDS011;12012;51.998;7.614;2022-12-05T14:41:13;33.33;;;20.15;;
23670;SDS011;12012;51.998;7.614;2022-12-05T14:43:51;50.85;;;27.10;;
23670;SDS011;12012;51.998;7.614;2022-12-05T14:46:21;62.60;;;31.05;;
23670;SDS011;12012;51.998;7.614;2022-12-05T14:48:51;75.18;;;32.90;;
23670;SDS011;12012;51.998;7.614;2022-12-05T14:54:02;44.20;;;24.90;;
23670;SDS011;12012;51.998;7.614;2022-12-05T14:56:32;44.38;;;24.23;;
23670;SDS011;12012;51.998;7.614;2022-12-05T14:59:04;45.80;;;25.88;;
23670;SDS011;12012;51.998;7.614;2022-12-05T15:01:38;41.15;;;24.40;;
23670;SDS011;12012;51.998;7.614;2022-12-05T15:06:56;36.05;;;24.08;;
23670;SDS011;12012;51.998;7.614;2022-12-05T15:12:32;41.60;;;26.30;;
23670;SDS011;12012;51.998;7.614;2022-12-05T15:15:20;33.72;;;21.25;;
23670;SDS011;12012;51.998;7.614;2022-12-05T15:20:45;37.13;;;22.63;;
23670;SDS011;12012;51.998;7.614;2022-12-05T15:31:38;33.25;;;22.75;;
23670;SDS011;12012;51.998;7.614;2022-12-05T15:37:07;30.70;;;18.33;;
23670;SDS011;12012;51.998;7.614;2022-12-05T15:42:18;32.75;;;20.63;;
23670;SDS011;12012;51.998;7.614;2022-12-05T15:44:45;31.75;;;20.13;;
23670;SDS011;12012;51.998;7.614;2022-12-05T15:47:24;32.70;;;20.65;;
23670;SDS011;12012;51.998;7.614;2022-12-05T15:49:50;31.27;;;19.52;;
23670;SDS011;12012;51.998;7.614;2022-12-05T15:55:06;33.63;;;21.58;;
23670;SDS011;12012;51.998;7.614;2022-12-05T15:57:45;30.38;;;18.92;;
23670;SDS011;12012;51.998;7.614;2022-12-05T16:00:18;30.75;;;19.73;;
23670;SDS011;12012;51.998;7.614;2022-12-05T16:03:00;37.15;;;22.20;;
23670;SDS011;12012;51.998;7.614;2022-12-05T16:05:46;30.52;;;19.63;;
23670;SDS011;12012;51.998;7.614;2022-12-05T16:08:17;31.42;;;19.52;;
23670;SDS011;12012;51.998;7.614;2022-12-05T16:10:43;31.30;;;19.27;;
23670;SDS011;12012;51.998;7.614;2022-12-05T16:13:13;33.22;;;20.75;;
23670;SDS011;12012;51.998;7.614;2022-12-05T16:15:44;40.00;;;24.30;;
23670;SDS011;12012;51.998;7.614;2022-12-05T16:18:26;32.97;;;21.65;;
23670;SDS011;12012;51.998;7.614;2022-12-05T16:20:54;33.05;;;21.13;;
23670;SDS011;12012;51.998;7.614;2022-12-05T16:23:30;33.35;;;20.60;;
23670;SDS011;12012;51.998;7.614;2022-12-05T16:26:13;27.67;;;18.25;;
23670;SDS011;12012;51.998;7.614;2022-12-05T16:28:55;29.95;;;18.92;;
23670;SDS011;12012;51.998;7.614;2022-12-05T16:31:21;25.70;;;17.90;;
23670;SDS011;12012;51.998;7.614;2022-12-05T16:33:57;28.27;;;18.33;;
23670;SDS011;12012;51.998;7.614;2022-12-05T16:36:31;29.55;;;17.85;;
23670;SDS011;12012;51.998;7.614;2022-12-05T16:39:11;30.25;;;19.33;;
23670;SDS011;12012;51.998;7.614;2022-12-05T16:41:39;31.70;;;18.63;;
23670;SDS011;12012;51.998;7.614;2022-12-05T16:47:16;31.15;;;20.83;;
23670;SDS011;12012;51.998;7.614;2022-12-05T16:49:50;27.00;;;17.85;;
23670;SDS011;12012;51.998;7.614;2022-12-05T16:52:16;34.72;;;21.88;;
23670;SDS011;12012;51.998;7.614;2022-12-05T16:54:45;31.92;;;21.13;;
23670;SDS011;12012;51.998;7.614;2022-12-05T16:57:13;30.85;;;21.08;;
23670;SDS011;12012;51.998;7.614;2022-12-05T16:59:40;28.00;;;19.33;;
23670;SDS011;12012;51.998;7.614;2022-12-05T17:02:11;36.42;;;22.55;;
23670;SDS011;12012;51.998;7.614;2022-12-05T17:04:39;29.80;;;21.02;;
23670;SDS011;12012;51.998;7.614;2022-12-05T17:07:05;34.85;;;22.38;;
23670;SDS011;12012;51.998;7.614;2022-12-05T17:09:31;29.55;;;19.75;;
23670;SDS011;12012;51.998;7.614;2022-12-05T17:12:07;30.10;;;19.73;;
23670;SDS011;12012;51.998;7.614;2022-12-05T17:14:37;35.07;;;23.60;;
23670;SDS011;12012;51.998;7.614;2022-12-05T17:17:04;37.45;;;24.58;;
23670;SDS011;12012;51.998;7.614;2022-12-05T17:19:36;36.85;;;24.38;;
23670;SDS011;12012;51.998;7.614;2022-12-05T17:22:03;38.30;;;25.17;;
23670;SDS011;12012;51.998;7.614;2022-12-05T17:24:30;35.40;;;23.55;;
23670;SDS011;12012;51.998;7.614;2022-12-05T17:26:55;35.85;;;22.25;;
23670;SDS011;12012;51.998;7.614;2022-12-05T17:29:21;38.63;;;25.02;;
23670;SDS011;12012;51.998;7.614;2022-12-05T17:31:47;40.13;;;25.48;;
23670;SDS011;12012;51.998;7.614;2022-12-05T17:34:14;39.67;;;25.48;;
23670;SDS011;12012;51.998;7.614;2022-12-05T17:36:41;41.47;;;24.80;;